P/v Golden Gate — WDE5665 — position and weather

sailwx.info

Track history (hours):
 
Tides and Currents Weather Stations Pressure Air Temp Water Temp Dewpoint Dewpoint Depression Visibility Wind Speed Wind Dir Waves Ship Positions

P/v Golden Gate

Owner: San Francisco Bar Pilots Benevolent and Protective, San Francisco, CA. More information available from US FCC via Universal Licensing System and Coast Guard Vessel Documentation Center.

Last reported at 2018-Jun-21 02:30 UTC. Time now 2018-Jun-21 02:44 UTC.
Position N 37°48' W 122°24'.

Length 21 m.

Type: Pilot. MMSI: 367370010.

Date/timePositionNaut miles runAvg speedWind from/ knotsBaromVisibWave heightAir tempDewpointWater temp
2018-Jun-21 02:30N 37°48' W 122°24'0 0.0
2018-Jun-21 02:00N 37°48' W 122°24'0 0.0
2018-Jun-21 01:30N 37°48' W 122°24'0 0.0
2018-Jun-21 01:00N 37°48' W 122°24'0 0.0
2018-Jun-21 00:30N 37°48' W 122°24'0 0.0
2018-Jun-21 00:00N 37°48' W 122°24'3 5.7
2018-Jun-20 23:30N 37°49' W 122°20'2 4.4
2018-Jun-20 23:00N 37°48' W 122°23'1 1.4
2018-Jun-20 22:30N 37°48' W 122°24'0 0.0
2018-Jun-20 22:00N 37°48' W 122°24'919.0
2018-Jun-20 21:30N 37°47' W 122°36'4 7.2
2018-Jun-20 21:01N 37°48' W 122°31'918.5
2018-Jun-20 20:30N 37°46' W 122°20'917.2
2018-Jun-20 20:00N 37°48' W 122°30'510.7
2018-Jun-20 19:30N 37°48' W 122°24'0 0.1
2018-Jun-20 19:00N 37°48' W 122°24'0 0.0
2018-Jun-20 18:30N 37°48' W 122°24'0 0.0
2018-Jun-20 18:00N 37°48' W 122°24'0 0.0
2018-Jun-20 17:30N 37°48' W 122°24'0 0.0
2018-Jun-20 17:00N 37°48' W 122°24'0 0.0
2018-Jun-20 16:30N 37°48' W 122°24'0 0.0
2018-Jun-20 16:00N 37°48' W 122°24'1 2.5
2018-Jun-20 15:30N 37°49' W 122°25'1 2.4
2018-Jun-20 15:00N 37°48' W 122°24'0 0.0
2018-Jun-20 14:31N 37°48' W 122°24'3 6.3
2018-Jun-20 14:00N 37°49' W 122°20'3 6.1
2018-Jun-20 13:30N 37°48' W 122°24'0 0.0
2018-Jun-20 13:00N 37°48' W 122°24'5 9.3
2018-Jun-20 12:30N 37°45' W 122°20'5 8.7
2018-Jun-20 11:58N 37°48' W 122°24'0 0.0
2018-Jun-20 11:30N 37°48' W 122°24'0 0.0
2018-Jun-20 11:00N 37°48' W 122°24'1 1.8
2018-Jun-20 10:30N 37°48' W 122°23'1 1.7
2018-Jun-20 10:00N 37°48' W 122°24'0 0.1
2018-Jun-20 09:30N 37°48' W 122°24'3 6.9
2018-Jun-20 09:01N 37°49' W 122°28'1121.2
2018-Jun-20 08:30N 37°45' W 122°41'1019.9
2018-Jun-20 08:01N 37°49' W 122°29'4 8.4
2018-Jun-20 07:30N 37°48' W 122°24'0 0.0
2018-Jun-20 06:59N 37°48' W 122°24'0 0.0
2018-Jun-20 06:30N 37°48' W 122°24'0 0.0
2018-Jun-20 06:00N 37°48' W 122°24'0 0.0
2018-Jun-20 05:30N 37°48' W 122°24'0 0.0
2018-Jun-20 05:00N 37°48' W 122°24'0 0.0
2018-Jun-20 04:30N 37°48' W 122°24'0 0.0
2018-Jun-20 03:59N 37°48' W 122°24'0 0.0
2018-Jun-20 03:29N 37°48' W 122°24'0 0.0
2018-Jun-20 03:00N 37°48' W 122°24'0 0.0
2018-Jun-20 02:30N 37°48' W 122°24'0 0.0
2018-Jun-20 02:00N 37°48' W 122°24'3 6.0
2018-Jun-20 01:30N 37°48' W 122°20'611.1
2018-Jun-20 01:01N 37°49' W 122°27'1121.7
2018-Jun-20 00:29N 37°45' W 122°40'918.9
2018-Jun-20 00:00N 37°49' W 122°30'714.8
2018-Jun-19 23:30N 37°46' W 122°21'2 4.9
2018-Jun-19 23:00N 37°48' W 122°23'1 1.7
2018-Jun-19 22:30N 37°48' W 122°24'4 7.9
2018-Jun-19 22:00N 37°45' W 122°21'4 7.4
2018-Jun-19 21:31N 37°49' W 122°20'3 5.9
2018-Jun-19 21:00N 37°48' W 122°24'0 0.0
2018-Jun-19 20:30N 37°48' W 122°24'0 0.0
2018-Jun-19 20:00N 37°48' W 122°24'0 0.0
2018-Jun-19 19:29N 37°48' W 122°24'0 0.0
2018-Jun-19 19:00N 37°48' W 122°24'1 2.8
2018-Jun-19 18:30N 37°47' W 122°22'510.0
2018-Jun-19 18:00N 37°49' W 122°28'4 7.3
2018-Jun-19 17:30N 37°48' W 122°24'0 0.0
2018-Jun-19 17:01N 37°48' W 122°24'0 0.0
2018-Jun-19 16:30N 37°48' W 122°24'4 8.4
2018-Jun-19 16:00N 37°45' W 122°20'3 6.6
2018-Jun-19 15:30N 37°48' W 122°23'1 1.6
2018-Jun-19 15:00N 37°48' W 122°24'0 0.0
2018-Jun-19 14:30N 37°48' W 122°24'1 1.2
2018-Jun-19 13:29N 37°49' W 122°25'1 2.4
2018-Jun-19 13:00N 37°48' W 122°24'1 2.8
2018-Jun-19 12:30N 37°47' W 122°23'1 2.1
2018-Jun-19 12:00N 37°48' W 122°23'0 0.5
2018-Jun-19 11:30N 37°48' W 122°24'0 0.0
2018-Jun-19 11:00N 37°48' W 122°24'0 0.0
2018-Jun-19 10:27N 37°48' W 122°24'0 0.0
2018-Jun-19 10:00N 37°48' W 122°24'2 4.8
2018-Jun-19 09:29N 37°46' W 122°22'0 0.6
2018-Jun-19 08:57N 37°46' W 122°21'3 5.6
2018-Jun-19 08:28N 37°49' W 122°20'2 3.3
2018-Jun-19 08:00N 37°47' W 122°21'2 4.8
2018-Jun-19 07:30N 37°48' W 122°24'0 0.1
2018-Jun-19 07:00N 37°48' W 122°24'2 3.4
2018-Jun-19 06:30N 37°47' W 122°22'2 3.4
2018-Jun-19 06:01N 37°48' W 122°23'0 0.8
2018-Jun-19 05:30N 37°48' W 122°24'816.9
2018-Jun-19 05:00N 37°47' W 122°34'0 0.6
2018-Jun-19 04:25N 37°47' W 122°35'718.1
2018-Jun-19 04:01N 37°49' W 122°26'2 3.9
2018-Jun-19 03:30N 37°48' W 122°24'0 0.0
2018-Jun-19 03:00N 37°48' W 122°24'0 0.0
2018-Jun-19 02:30N 37°48' W 122°24'0 0.0
2018-Jun-19 02:01N 37°48' W 122°24'1 1.6
2018-Jun-19 01:30N 37°49' W 122°23'3 6.9
2018-Jun-19 01:00N 37°49' W 122°28'713.7
2018-Jun-19 00:30N 37°48' W 122°19'0 0.5
2018-Jun-19 00:00N 37°48' W 122°20'3 5.2
2018-Jun-18 23:30N 37°46' W 122°22'3 5.6
2018-Jun-18 23:00N 37°48' W 122°24'0 0.7
2018-Jun-18 22:30N 37°48' W 122°23'0 0.7
2018-Jun-18 22:00N 37°48' W 122°24'0 0.0
2018-Jun-18 21:30N 37°48' W 122°24'1 2.0
2018-Jun-18 21:01N 37°49' W 122°24'1019.8
2018-Jun-18 20:30N 37°46' W 122°36'4 7.9
2018-Jun-18 20:00N 37°48' W 122°32'816.7
2018-Jun-18 19:30N 37°48' W 122°21'2 4.4
2018-Jun-18 19:00N 37°48' W 122°24'0 0.1
2018-Jun-18 18:28N 37°48' W 122°24'0 0.0
2018-Jun-18 18:00N 37°48' W 122°24'0 0.0
2018-Jun-18 17:30N 37°48' W 122°24'0 0.0
2018-Jun-18 17:00N 37°48' W 122°24'0 0.0
2018-Jun-18 16:30N 37°48' W 122°24'0 0.0
2018-Jun-18 15:59N 37°48' W 122°24'613.3
2018-Jun-18 15:30N 37°43' W 122°19'612.8
2018-Jun-18 15:01N 37°48' W 122°24'1 1.6
2018-Jun-18 14:30N 37°48' W 122°23'2 3.7
2018-Jun-18 14:00N 37°49' W 122°25'0 0.6
2018-Jun-18 13:22N 37°49' W 122°25'411.9
2018-Jun-18 13:00N 37°48' W 122°20'3 6.4
2018-Jun-18 12:31N 37°48' W 122°24'0 0.0
2018-Jun-18 12:00N 37°48' W 122°24'0 0.0
2018-Jun-18 11:30N 37°48' W 122°24'1 1.6
2018-Jun-18 11:00N 37°48' W 122°23'1 1.4
2018-Jun-18 10:30N 37°48' W 122°24'3 5.7
2018-Jun-18 10:01N 37°49' W 122°20'1223.2
2018-Jun-18 09:30N 37°47' W 122°35'2 3.7
2018-Jun-18 09:00N 37°47' W 122°33'713.7
2018-Jun-18 08:30N 37°48' W 122°24'0 0.0
2018-Jun-18 08:00N 37°48' W 122°24'1 1.2
2018-Jun-18 07:30N 37°48' W 122°23'2 4.3
2018-Jun-18 07:00N 37°49' W 122°25'2 3.2
2018-Jun-18 06:30N 37°48' W 122°24'0 0.0
2018-Jun-18 06:00N 37°48' W 122°24'0 0.0
2018-Jun-18 05:30N 37°48' W 122°24'0 0.0
2018-Jun-18 05:00N 37°48' W 122°24'0 0.0
2018-Jun-18 04:29N 37°48' W 122°24'0 0.4
2018-Jun-18 04:00N 37°48' W 122°24'3 6.5
2018-Jun-18 03:30N 37°45' W 122°22'3 6.6
2018-Jun-18 03:01N 37°48' W 122°24'4 7.1
2018-Jun-18 02:30N 37°48' W 122°19'0 0.9
2018-Jun-18 02:00N 37°48' W 122°20'510.2
2018-Jun-18 01:30N 37°49' W 122°26'4 8.2
2018-Jun-18 01:00N 37°48' W 122°31'610.5
2018-Jun-18 00:27N 37°46' W 122°38'3 6.2
2018-Jun-17 23:56N 37°47' W 122°34'818.2
2018-Jun-17 23:30N 37°49' W 122°25'510.5
2018-Jun-17 23:00N 37°45' W 122°21'4 7.6
2018-Jun-17 22:30N 37°48' W 122°24'0 0.0
2018-Jun-17 22:00N 37°48' W 122°24'0 0.0
2018-Jun-17 21:29N 37°48' W 122°24'2 3.3
2018-Jun-17 21:01N 37°47' W 122°22'1 2.6
2018-Jun-17 20:30N 37°48' W 122°22'2 3.4
2018-Jun-17 20:01N 37°48' W 122°24'0 0.0
2018-Jun-17 19:30N 37°48' W 122°24'0 0.0
2018-Jun-17 19:00N 37°48' W 122°24'0 0.0
2018-Jun-17 18:30N 37°48' W 122°24'1 2.0
2018-Jun-17 18:00N 37°48' W 122°23'1 2.0
2018-Jun-17 17:30N 37°48' W 122°24'4 7.5
2018-Jun-17 17:00N 37°45' W 122°20'0 0.8
2018-Jun-17 16:30N 37°45' W 122°21'4 8.0
2018-Jun-17 16:00N 37°48' W 122°24'3 5.5
2018-Jun-17 15:30N 37°49' W 122°20'612.9
2018-Jun-17 15:00N 37°49' W 122°28'4 7.3
2018-Jun-17 14:28N 37°48' W 122°24'0 0.0
2018-Jun-17 14:00N 37°48' W 122°24'0 0.0
2018-Jun-17 13:30N 37°48' W 122°24'0 0.0
2018-Jun-17 12:59N 37°48' W 122°24'3 6.2
2018-Jun-17 12:30N 37°46' W 122°21'2 4.3
2018-Jun-17 12:00N 37°48' W 122°21'1 2.3
2018-Jun-17 11:30N 37°49' W 122°20'2 3.8
2018-Jun-17 11:00N 37°48' W 122°22'3 5.7
2018-Jun-17 10:31N 37°46' W 122°21'3 6.8
2018-Jun-17 10:00N 37°48' W 122°24'0 0.0
2018-Jun-17 09:28N 37°48' W 122°24'0 0.0
2018-Jun-17 09:00N 37°48' W 122°24'0 0.0
2018-Jun-17 08:27N 37°48' W 122°24'2 4.2
2018-Jun-17 08:00N 37°50' W 122°24'510.3
2018-Jun-17 07:30N 37°45' W 122°21'3 6.7
2018-Jun-17 07:00N 37°48' W 122°24'3 6.3
2018-Jun-17 06:30N 37°45' W 122°22'3 6.7
2018-Jun-17 06:01N 37°49' W 122°20'3 5.8
2018-Jun-17 05:30N 37°48' W 122°24'0 0.0
2018-Jun-17 05:00N 37°48' W 122°24'0 0.0
2018-Jun-17 04:30N 37°48' W 122°24'0 0.0
2018-Jun-17 04:00N 37°48' W 122°24'0 0.0
2018-Jun-17 03:30N 37°48' W 122°24'1 1.2
2018-Jun-17 03:01N 37°48' W 122°23'3 5.3
2018-Jun-17 02:31N 37°49' W 122°26'1020.3
2018-Jun-17 02:00N 37°46' W 122°39'1 1.5
2018-Jun-17 01:24N 37°45' W 122°39'2 3.5
2018-Jun-17 00:56N 37°46' W 122°37'2 3.7
2018-Jun-17 00:20N 37°47' W 122°35'721.7
2018-Jun-17 00:01N 37°49' W 122°26'611.2
2018-Jun-16 23:30N 37°46' W 122°20'4 7.0
2018-Jun-16 23:00N 37°48' W 122°24'3 5.6
2018-Jun-16 22:30N 37°47' W 122°21'3 5.4
2018-Jun-16 21:59N 37°48' W 122°24'0 0.0
2018-Jun-16 21:30N 37°48' W 122°24'0 0.0
2018-Jun-16 21:00N 37°48' W 122°24'0 0.1
2018-Jun-16 20:30N 37°48' W 122°24'3 6.5
2018-Jun-16 20:00N 37°46' W 122°21'3 6.5
2018-Jun-16 19:31N 37°48' W 122°24'0 0.0
2018-Jun-16 18:57N 37°48' W 122°24'0 0.0
2018-Jun-16 18:31N 37°48' W 122°24'0 0.0
2018-Jun-16 18:00N 37°48' W 122°24'510.1
2018-Jun-16 17:30N 37°44' W 122°20'510.5
2018-Jun-16 17:01N 37°48' W 122°24'0 0.0
2018-Jun-16 16:30N 37°48' W 122°24'0 0.0
2018-Jun-16 16:00N 37°48' W 122°24'0 0.0
2018-Jun-16 15:30N 37°48' W 122°24'3 6.3
2018-Jun-16 15:01N 37°49' W 122°20'3 6.1
2018-Jun-16 14:29N 37°48' W 122°24'1 2.5
2018-Jun-16 14:00N 37°49' W 122°25'1 1.8
2018-Jun-16 13:30N 37°49' W 122°26'2 4.5
2018-Jun-16 13:00N 37°51' W 122°24'3 5.2
2018-Jun-16 12:30N 37°48' W 122°24'1 2.2
2018-Jun-16 12:00N 37°48' W 122°22'1 2.2
2018-Jun-16 11:30N 37°48' W 122°24'0 0.0
2018-Jun-16 11:00N 37°48' W 122°24'0 0.0
2018-Jun-16 10:30N 37°48' W 122°24'3 6.3
2018-Jun-16 10:00N 37°49' W 122°28'4 7.7
2018-Jun-16 09:30N 37°48' W 122°23'1 1.4
2018-Jun-16 09:00N 37°48' W 122°24'0 0.0
2018-Jun-16 08:30N 37°48' W 122°24'0 0.0
2018-Jun-16 08:01N 37°48' W 122°24'0 0.0
2018-Jun-16 07:31N 37°48' W 122°24'0 0.0
2018-Jun-16 07:00N 37°48' W 122°24'0 0.0
2018-Jun-16 06:30N 37°48' W 122°24'611.4
2018-Jun-16 06:00N 37°44' W 122°19'918.2
2018-Jun-16 05:30N 37°50' W 122°27'3 6.9
2018-Jun-16 05:00N 37°48' W 122°24'1 2.7
2018-Jun-16 04:30N 37°47' W 122°22'2 4.8
2018-Jun-16 04:00N 37°46' W 122°20'611.2
2018-Jun-16 03:30N 37°49' W 122°26'2 3.8
2018-Jun-16 03:00N 37°48' W 122°24'0 0.0
2018-Jun-16 02:29N 37°48' W 122°24'4 7.9
2018-Jun-16 02:01N 37°48' W 122°19'3 6.5
2018-Jun-16 01:30N 37°48' W 122°23'0 1.0
2018-Jun-16 01:01N 37°48' W 122°24'5 9.3
2018-Jun-16 00:30N 37°45' W 122°20'5 9.3
2018-Jun-16 00:00N 37°48' W 122°24'0 0.0
2018-Jun-15 23:30N 37°48' W 122°24'0 0.0
2018-Jun-15 23:00N 37°48' W 122°24'1 2.2
2018-Jun-15 22:30N 37°48' W 122°23'1 2.2
2018-Jun-15 22:01N 37°48' W 122°24'3 6.9
2018-Jun-15 21:31N 37°49' W 122°28'3 6.9
2018-Jun-15 21:00N 37°48' W 122°24'918.0
2018-Jun-15 20:30N 37°47' W 122°35'2 3.8
2018-Jun-15 20:01N 37°48' W 122°33'816.5
2018-Jun-15 19:31N 37°47' W 122°22'2 3.6
2018-Jun-15 19:01N 37°48' W 122°20'3 5.5
2018-Jun-15 18:30N 37°48' W 122°24'0 0.5
2018-Jun-15 18:01N 37°48' W 122°23'0 0.5
2018-Jun-15 17:30N 37°48' W 122°24'0 0.0
2018-Jun-15 17:00N 37°48' W 122°24'0 0.0
2018-Jun-15 16:31N 37°48' W 122°24'0 0.0
2018-Jun-15 16:01N 37°48' W 122°24'0 0.0
2018-Jun-15 15:30N 37°48' W 122°24'1 2.7
2018-Jun-15 15:00N 37°49' W 122°25'2 3.1
2018-Jun-15 14:30N 37°49' W 122°27'4 8.3
2018-Jun-15 14:00N 37°47' W 122°22'1 2.0
2018-Jun-15 13:30N 37°48' W 122°23'1 1.2
2018-Jun-15 13:01N 37°48' W 122°24'0 0.0
2018-Jun-15 12:29N 37°48' W 122°24'0 0.0
2018-Jun-15 11:59N 37°48' W 122°24'1 1.8
2018-Jun-15 11:30N 37°48' W 122°23'1 1.7
2018-Jun-15 11:00N 37°48' W 122°24'0 0.0
2018-Jun-15 10:28N 37°48' W 122°24'0 0.0
2018-Jun-15 09:54N 37°48' W 122°24'0 0.0
2018-Jun-15 09:30N 37°48' W 122°24'0 0.0
2018-Jun-15 09:00N 37°48' W 122°24'0 0.0
2018-Jun-15 08:30N 37°48' W 122°24'0 0.0
2018-Jun-15 08:00N 37°48' W 122°24'1 1.2
2018-Jun-15 07:30N 37°48' W 122°23'3 5.1
2018-Jun-15 07:01N 37°46' W 122°21'3 6.2
2018-Jun-15 06:30N 37°48' W 122°24'0 0.0
2018-Jun-15 05:57N 37°48' W 122°24'0 0.2
2018-Jun-15 05:30N 37°48' W 122°24'0 0.1
2018-Jun-15 05:00N 37°48' W 122°24'0 0.0
2018-Jun-15 04:30N 37°48' W 122°24'510.4
2018-Jun-15 04:00N 37°44' W 122°20'5 9.3
2018-Jun-15 03:30N 37°48' W 122°22'1 2.1
2018-Jun-15 03:00N 37°49' W 122°20'1019.3
2018-Jun-15 02:31N 37°48' W 122°32'2 2.1
2018-Jun-15 01:46N 37°47' W 122°34'517.4
2018-Jun-15 01:30N 37°49' W 122°29'4 8.4
2018-Jun-15 01:00N 37°48' W 122°24'0 0.0
2018-Jun-15 00:30N 37°48' W 122°24'0 0.0
2018-Jun-15 00:00N 37°48' W 122°24'0 0.0
2018-Jun-14 23:30N 37°48' W 122°24'0 0.0
2018-Jun-14 23:00N 37°48' W 122°24'0 0.0
2018-Jun-14 22:30N 37°48' W 122°24'1 1.3
2018-Jun-14 22:00N 37°48' W 122°23'1 2.6
2018-Jun-14 21:31N 37°47' W 122°22'2 3.2
2018-Jun-14 21:00N 37°48' W 122°24'0 0.0
2018-Jun-14 20:30N 37°48' W 122°24'0 0.0
2018-Jun-14 19:58N 37°48' W 122°24'0 0.0
2018-Jun-14 19:30N 37°48' W 122°24'0 0.0
2018-Jun-14 19:00N 37°48' W 122°24'0 0.0
2018-Jun-14 18:30N 37°48' W 122°24'0 0.0
2018-Jun-14 18:00N 37°48' W 122°24'0 0.0
2018-Jun-14 17:30N 37°48' W 122°24'1 2.1
2018-Jun-14 17:01N 37°49' W 122°25'4 8.7
2018-Jun-14 16:30N 37°45' W 122°21'3 6.6
2018-Jun-14 16:00N 37°48' W 122°24'0 0.0
2018-Jun-14 15:30N 37°48' W 122°24'0 0.0
2018-Jun-14 15:00N 37°48' W 122°24'4 7.1
2018-Jun-14 14:30N 37°48' W 122°19'2 4.6
2018-Jun-14 14:01N 37°48' W 122°22'2 3.6
2018-Jun-14 13:29N 37°46' W 122°22'2 4.9
2018-Jun-14 13:00N 37°48' W 122°24'0 0.0
2018-Jun-14 12:30N 37°48' W 122°24'0 0.0
2018-Jun-14 12:00N 37°48' W 122°24'3 5.5
2018-Jun-14 11:30N 37°46' W 122°21'3 5.6
2018-Jun-14 11:00N 37°48' W 122°24'612.5
2018-Jun-14 10:30N 37°43' W 122°19'613.0
2018-Jun-14 10:00N 37°48' W 122°24'0 0.1
2018-Jun-14 09:30N 37°48' W 122°24'0 0.0
2018-Jun-14 08:59N 37°48' W 122°24'0 0.0
2018-Jun-14 08:30N 37°48' W 122°24'0 0.0
2018-Jun-14 08:00N 37°48' W 122°24'0 0.0
2018-Jun-14 07:30N 37°48' W 122°24'1 2.7
2018-Jun-14 07:00N 37°49' W 122°25'1 2.7
2018-Jun-14 06:30N 37°48' W 122°24'0 0.0
2018-Jun-14 06:00N 37°48' W 122°24'0 0.0
2018-Jun-14 05:29N 37°48' W 122°24'0 0.0
2018-Jun-14 05:00N 37°48' W 122°24'0 0.0
2018-Jun-14 04:30N 37°48' W 122°24'0 0.0
2018-Jun-14 03:58N 37°48' W 122°24'0 0.0
2018-Jun-14 03:30N 37°48' W 122°24'0 0.0
2018-Jun-14 03:00N 37°48' W 122°24'0 0.0
2018-Jun-14 02:30N 37°48' W 122°24'0 0.0
2018-Jun-14 02:00N 37°48' W 122°24'0 0.0
2018-Jun-14 01:30N 37°48' W 122°24'0 0.0
2018-Jun-14 01:00N 37°48' W 122°24'3 5.6
2018-Jun-14 00:30N 37°46' W 122°21'3 5.6
2018-Jun-14 00:00N 37°48' W 122°24'4 8.6
2018-Jun-13 23:31N 37°48' W 122°18'4 8.3
2018-Jun-13 23:00N 37°48' W 122°24'0 0.0
2018-Jun-13 22:30N 37°48' W 122°24'0 0.0
2018-Jun-13 22:00N 37°48' W 122°24'3 5.5
2018-Jun-13 21:30N 37°49' W 122°20'510.8
2018-Jun-13 21:00N 37°53' W 122°24'612.3
2018-Jun-13 20:30N 37°48' W 122°20'3 6.1
2018-Jun-13 19:59N 37°48' W 122°24'3 6.3
2018-Jun-13 19:30N 37°46' W 122°21'3 6.1
2018-Jun-13 19:00N 37°48' W 122°24'0 0.0
2018-Jun-13 18:30N 37°48' W 122°24'0 0.0
2018-Jun-13 18:00N 37°48' W 122°24'4 7.7
2018-Jun-13 17:30N 37°45' W 122°20'0 0.9
2018-Jun-13 17:00N 37°45' W 122°20'1 2.8
2018-Jun-13 16:30N 37°46' W 122°21'1 1.7
2018-Jun-13 16:00N 37°47' W 122°21'3 7.0
2018-Jun-13 15:30N 37°44' W 122°20'510.7
2018-Jun-13 15:00N 37°48' W 122°24'0 0.0
2018-Jun-13 14:30N 37°48' W 122°24'1 1.3
2018-Jun-13 13:33N 37°49' W 122°25'0 3.1
2018-Jun-13 13:30N 37°49' W 122°25'5 9.4
2018-Jun-13 13:01N 37°48' W 122°19'0 0.5
2018-Jun-13 12:30N 37°48' W 122°20'1 1.5
2018-Jun-13 12:00N 37°49' W 122°20'1 2.0
2018-Jun-13 11:30N 37°48' W 122°21'2 4.0
2018-Jun-13 11:01N 37°48' W 122°24'0 0.0
2018-Jun-13 10:30N 37°48' W 122°24'3 5.4
2018-Jun-13 09:59N 37°46' W 122°21'3 5.6
2018-Jun-13 09:29N 37°48' W 122°24'0 0.0
2018-Jun-13 09:00N 37°48' W 122°24'0 0.0
2018-Jun-13 08:30N 37°48' W 122°24'0 0.0
2018-Jun-13 08:00N 37°48' W 122°24'0 0.0
2018-Jun-13 07:30N 37°48' W 122°24'0 0.0
2018-Jun-13 06:59N 37°48' W 122°24'0 0.0
2018-Jun-13 06:29N 37°48' W 122°24'3 6.3
2018-Jun-13 06:00N 37°51' W 122°23'3 6.7
2018-Jun-13 05:30N 37°52' W 122°27'1120.6
2018-Jun-13 05:00N 37°46' W 122°38'611.5
2018-Jun-13 04:30N 37°49' W 122°32'611.8
2018-Jun-13 04:01N 37°49' W 122°24'4 7.3
2018-Jun-13 03:30N 37°47' W 122°21'3 6.5
2018-Jun-13 03:00N 37°44' W 122°21'816.0
2018-Jun-13 02:31N 37°49' W 122°28'815.3
2018-Jun-13 02:00N 37°46' W 122°37'5 9.8
2018-Jun-13 01:31N 37°48' W 122°32'612.6
2018-Jun-13 01:00N 37°48' W 122°24'0 0.0
2018-Jun-13 00:29N 37°48' W 122°24'0 0.0
2018-Jun-13 00:00N 37°48' W 122°24'4 8.4
2018-Jun-12 23:31N 37°48' W 122°19'1 1.1
2018-Jun-12 23:00N 37°48' W 122°19'3 6.9
2018-Jun-12 22:30N 37°48' W 122°24'0 0.3
2018-Jun-12 21:59N 37°48' W 122°24'0 0.0
2018-Jun-12 21:30N 37°48' W 122°24'510.4
2018-Jun-12 21:00N 37°44' W 122°20'510.4
2018-Jun-12 20:30N 37°48' W 122°24'1 2.6
2018-Jun-12 20:00N 37°49' W 122°25'1 1.2
2018-Jun-12 19:30N 37°49' W 122°25'3 6.1
2018-Jun-12 19:00N 37°49' W 122°29'5 7.3
2018-Jun-12 18:22N 37°47' W 122°34'719.4
2018-Jun-12 18:01N 37°49' W 122°26'2 3.9
2018-Jun-12 17:30N 37°48' W 122°24'0 0.0
2018-Jun-12 17:00N 37°48' W 122°24'0 0.0
2018-Jun-12 16:30N 37°48' W 122°24'4 7.5
2018-Jun-12 16:00N 37°45' W 122°21'1 1.8
2018-Jun-12 15:31N 37°46' W 122°21'3 5.8
2018-Jun-12 15:00N 37°48' W 122°24'0 0.0
2018-Jun-12 14:30N 37°48' W 122°24'4 8.2
2018-Jun-12 14:01N 37°45' W 122°20'4 7.9
2018-Jun-12 13:30N 37°48' W 122°24'2 4.7
2018-Jun-12 13:00N 37°49' W 122°26'2 4.6
2018-Jun-12 12:30N 37°48' W 122°24'0 0.0
2018-Jun-12 12:00N 37°48' W 122°24'0 0.0
2018-Jun-12 11:30N 37°48' W 122°24'0 0.0
2018-Jun-12 10:58N 37°48' W 122°24'0 0.0
2018-Jun-12 10:30N 37°48' W 122°24'0 0.0
2018-Jun-12 10:00N 37°48' W 122°24'0 0.0
2018-Jun-12 09:28N 37°48' W 122°24'0 0.0
2018-Jun-12 09:00N 37°48' W 122°24'0 0.0
2018-Jun-12 08:30N 37°48' W 122°24'0 0.0
2018-Jun-12 08:00N 37°48' W 122°24'0 0.0
2018-Jun-12 07:30N 37°48' W 122°24'0 0.0
2018-Jun-12 07:00N 37°48' W 122°24'2 4.8
2018-Jun-12 06:30N 37°46' W 122°22'2 4.8
2018-Jun-12 06:00N 37°48' W 122°24'0 0.0
2018-Jun-12 05:30N 37°48' W 122°24'0 0.0
2018-Jun-12 05:00N 37°48' W 122°24'0 0.0
2018-Jun-12 04:30N 37°48' W 122°24'0 0.0
2018-Jun-12 04:00N 37°48' W 122°24'3 6.8
2018-Jun-12 03:30N 37°48' W 122°19'817.0
2018-Jun-12 03:00N 37°48' W 122°30'710.7
2018-Jun-12 02:23N 37°46' W 122°38'410.5
2018-Jun-12 02:00N 37°47' W 122°33'815.6
2018-Jun-12 01:30N 37°49' W 122°24'1 1.0
2018-Jun-12 01:00N 37°48' W 122°23'0 0.8
2018-Jun-12 00:30N 37°48' W 122°24'0 0.1
2018-Jun-12 00:00N 37°48' W 122°24'4 8.4
2018-Jun-11 23:30N 37°45' W 122°20'2 4.0
2018-Jun-11 23:00N 37°45' W 122°23'0 0.0
2018-Jun-11 22:30N 37°45' W 122°23'3 6.4
2018-Jun-11 21:59N 37°48' W 122°24'0 0.0
2018-Jun-11 21:31N 37°48' W 122°24'0 0.0
2018-Jun-11 21:00N 37°48' W 122°24'0 0.0
2018-Jun-11 20:30N 37°48' W 122°24'0 0.0
2018-Jun-11 20:01N 37°48' W 122°24'713.2
2018-Jun-11 19:30N 37°48' W 122°32'712.8
2018-Jun-11 18:59N 37°48' W 122°24'2 4.4
2018-Jun-11 18:30N 37°47' W 122°22'2 4.7
2018-Jun-11 18:00N 37°49' W 122°20'4 8.0
2018-Jun-11 17:30N 37°49' W 122°25'0 0.0
2018-Jun-11 16:39N 37°49' W 122°25'1 5.5
2018-Jun-11 16:31N 37°49' W 122°24'4 8.1
2018-Jun-11 16:00N 37°46' W 122°21'1 1.3
2018-Jun-11 15:30N 37°47' W 122°21'3 5.6
2018-Jun-11 15:00N 37°48' W 122°24'3 6.4
2018-Jun-11 14:30N 37°49' W 122°20'4 8.7
2018-Jun-11 14:00N 37°45' W 122°23'4 8.9
2018-Jun-11 13:30N 37°48' W 122°18'5 8.9
2018-Jun-11 13:00N 37°48' W 122°24'0 0.0
2018-Jun-11 12:30N 37°48' W 122°24'2 3.2
2018-Jun-11 12:01N 37°49' W 122°25'1 2.7
2018-Jun-11 11:31N 37°49' W 122°27'5 9.8
2018-Jun-11 11:00N 37°48' W 122°21'2 4.4
2018-Jun-11 10:30N 37°48' W 122°24'0 0.0
2018-Jun-11 10:00N 37°48' W 122°24'0 0.0
2018-Jun-11 09:30N 37°48' W 122°24'0 0.0
2018-Jun-11 09:00N 37°48' W 122°24'0 0.0
2018-Jun-11 08:30N 37°48' W 122°24'0 0.0
2018-Jun-11 08:00N 37°48' W 122°24'0 0.0
2018-Jun-11 07:30N 37°48' W 122°24'0 0.0
2018-Jun-11 07:00N 37°48' W 122°24'2 4.8
2018-Jun-11 06:30N 37°46' W 122°22'4 7.7
2018-Jun-11 06:00N 37°49' W 122°25'2 3.0
2018-Jun-11 05:30N 37°48' W 122°24'0 0.0
2018-Jun-11 05:00N 37°48' W 122°24'0 0.0
2018-Jun-11 04:30N 37°48' W 122°24'0 0.0
2018-Jun-11 04:00N 37°48' W 122°24'0 0.0
2018-Jun-11 03:30N 37°48' W 122°24'0 0.0
2018-Jun-11 03:00N 37°48' W 122°24'0 0.0
2018-Jun-11 02:30N 37°48' W 122°24'  
Track history (hours):
 
Tides and Currents Weather Stations Pressure Air Temp Water Temp Dewpoint Dewpoint Depression Visibility Wind Speed Wind Dir Waves Ship Positions

P/v Golden Gate

Owner: San Francisco Bar Pilots Benevolent and Protective, San Francisco, CA. More information available from US FCC via Universal Licensing System and Coast Guard Vessel Documentation Center.

Last reported at 2018-Jun-21 02:30 UTC. Time now 2018-Jun-21 02:44 UTC.
Position N 37°48' W 122°24'.

Length 21 m.

Type: Pilot. MMSI: 367370010.

Date/timePositionNaut miles runAvg speedWind from/ knotsBaromVisibWave heightAir tempDewpointWater temp
2018-Jun-21 02:30N 37°48' W 122°24'0 0.0
2018-Jun-21 02:00N 37°48' W 122°24'0 0.0
2018-Jun-21 01:30N 37°48' W 122°24'0 0.0
2018-Jun-21 01:00N 37°48' W 122°24'0 0.0
2018-Jun-21 00:30N 37°48' W 122°24'0 0.0
2018-Jun-21 00:00N 37°48' W 122°24'3 5.7
2018-Jun-20 23:30N 37°49' W 122°20'2 4.4
2018-Jun-20 23:00N 37°48' W 122°23'1 1.4
2018-Jun-20 22:30N 37°48' W 122°24'0 0.0
2018-Jun-20 22:00N 37°48' W 122°24'919.0
2018-Jun-20 21:30N 37°47' W 122°36'4 7.2
2018-Jun-20 21:01N 37°48' W 122°31'918.5
2018-Jun-20 20:30N 37°46' W 122°20'917.2
2018-Jun-20 20:00N 37°48' W 122°30'510.7
2018-Jun-20 19:30N 37°48' W 122°24'0 0.1
2018-Jun-20 19:00N 37°48' W 122°24'0 0.0
2018-Jun-20 18:30N 37°48' W 122°24'0 0.0
2018-Jun-20 18:00N 37°48' W 122°24'0 0.0
2018-Jun-20 17:30N 37°48' W 122°24'0 0.0
2018-Jun-20 17:00N 37°48' W 122°24'0 0.0
2018-Jun-20 16:30N 37°48' W 122°24'0 0.0
2018-Jun-20 16:00N 37°48' W 122°24'1 2.5
2018-Jun-20 15:30N 37°49' W 122°25'1 2.4
2018-Jun-20 15:00N 37°48' W 122°24'0 0.0
2018-Jun-20 14:31N 37°48' W 122°24'3 6.3
2018-Jun-20 14:00N 37°49' W 122°20'3 6.1
2018-Jun-20 13:30N 37°48' W 122°24'0 0.0
2018-Jun-20 13:00N 37°48' W 122°24'5 9.3
2018-Jun-20 12:30N 37°45' W 122°20'5 8.7
2018-Jun-20 11:58N 37°48' W 122°24'0 0.0
2018-Jun-20 11:30N 37°48' W 122°24'0 0.0
2018-Jun-20 11:00N 37°48' W 122°24'1 1.8
2018-Jun-20 10:30N 37°48' W 122°23'1 1.7
2018-Jun-20 10:00N 37°48' W 122°24'0 0.1
2018-Jun-20 09:30N 37°48' W 122°24'3 6.9
2018-Jun-20 09:01N 37°49' W 122°28'1121.2
2018-Jun-20 08:30N 37°45' W 122°41'1019.9
2018-Jun-20 08:01N 37°49' W 122°29'4 8.4
2018-Jun-20 07:30N 37°48' W 122°24'0 0.0
2018-Jun-20 06:59N 37°48' W 122°24'0 0.0
2018-Jun-20 06:30N 37°48' W 122°24'0 0.0
2018-Jun-20 06:00N 37°48' W 122°24'0 0.0
2018-Jun-20 05:30N 37°48' W 122°24'0 0.0
2018-Jun-20 05:00N 37°48' W 122°24'0 0.0
2018-Jun-20 04:30N 37°48' W 122°24'0 0.0
2018-Jun-20 03:59N 37°48' W 122°24'0 0.0
2018-Jun-20 03:29N 37°48' W 122°24'0 0.0
2018-Jun-20 03:00N 37°48' W 122°24'0 0.0
2018-Jun-20 02:30N 37°48' W 122°24'0 0.0
2018-Jun-20 02:00N 37°48' W 122°24'3 6.0
2018-Jun-20 01:30N 37°48' W 122°20'611.1
2018-Jun-20 01:01N 37°49' W 122°27'1121.7
2018-Jun-20 00:29N 37°45' W 122°40'918.9
2018-Jun-20 00:00N 37°49' W 122°30'714.8
2018-Jun-19 23:30N 37°46' W 122°21'2 4.9
2018-Jun-19 23:00N 37°48' W 122°23'1 1.7
2018-Jun-19 22:30N 37°48' W 122°24'4 7.9
2018-Jun-19 22:00N 37°45' W 122°21'4 7.4
2018-Jun-19 21:31N 37°49' W 122°20'3 5.9
2018-Jun-19 21:00N 37°48' W 122°24'0 0.0
2018-Jun-19 20:30N 37°48' W 122°24'0 0.0
2018-Jun-19 20:00N 37°48' W 122°24'0 0.0
2018-Jun-19 19:29N 37°48' W 122°24'0 0.0
2018-Jun-19 19:00N 37°48' W 122°24'1 2.8
2018-Jun-19 18:30N 37°47' W 122°22'510.0
2018-Jun-19 18:00N 37°49' W 122°28'4 7.3
2018-Jun-19 17:30N 37°48' W 122°24'0 0.0
2018-Jun-19 17:01N 37°48' W 122°24'0 0.0
2018-Jun-19 16:30N 37°48' W 122°24'4 8.4
2018-Jun-19 16:00N 37°45' W 122°20'3 6.6
2018-Jun-19 15:30N 37°48' W 122°23'1 1.6
2018-Jun-19 15:00N 37°48' W 122°24'0 0.0
2018-Jun-19 14:30N 37°48' W 122°24'1 1.2
2018-Jun-19 13:29N 37°49' W 122°25'1 2.4
2018-Jun-19 13:00N 37°48' W 122°24'1 2.8
2018-Jun-19 12:30N 37°47' W 122°23'1 2.1
2018-Jun-19 12:00N 37°48' W 122°23'0 0.5
2018-Jun-19 11:30N 37°48' W 122°24'0 0.0
2018-Jun-19 11:00N 37°48' W 122°24'0 0.0
2018-Jun-19 10:27N 37°48' W 122°24'0 0.0
2018-Jun-19 10:00N 37°48' W 122°24'2 4.8
2018-Jun-19 09:29N 37°46' W 122°22'0 0.6
2018-Jun-19 08:57N 37°46' W 122°21'3 5.6
2018-Jun-19 08:28N 37°49' W 122°20'2 3.3
2018-Jun-19 08:00N 37°47' W 122°21'2 4.8
2018-Jun-19 07:30N 37°48' W 122°24'0 0.1
2018-Jun-19 07:00N 37°48' W 122°24'2 3.4
2018-Jun-19 06:30N 37°47' W 122°22'2 3.4
2018-Jun-19 06:01N 37°48' W 122°23'0 0.8
2018-Jun-19 05:30N 37°48' W 122°24'816.9
2018-Jun-19 05:00N 37°47' W 122°34'0 0.6
2018-Jun-19 04:25N 37°47' W 122°35'718.1
2018-Jun-19 04:01N 37°49' W 122°26'2 3.9
2018-Jun-19 03:30N 37°48' W 122°24'0 0.0
2018-Jun-19 03:00N 37°48' W 122°24'0 0.0
2018-Jun-19 02:30N 37°48' W 122°24'0 0.0
2018-Jun-19 02:01N 37°48' W 122°24'1 1.6
2018-Jun-19 01:30N 37°49' W 122°23'3 6.9
2018-Jun-19 01:00N 37°49' W 122°28'713.7
2018-Jun-19 00:30N 37°48' W 122°19'0 0.5
2018-Jun-19 00:00N 37°48' W 122°20'3 5.2
2018-Jun-18 23:30N 37°46' W 122°22'3 5.6
2018-Jun-18 23:00N 37°48' W 122°24'0 0.7
2018-Jun-18 22:30N 37°48' W 122°23'0 0.7
2018-Jun-18 22:00N 37°48' W 122°24'0 0.0
2018-Jun-18 21:30N 37°48' W 122°24'1 2.0
2018-Jun-18 21:01N 37°49' W 122°24'1019.8
2018-Jun-18 20:30N 37°46' W 122°36'4 7.9
2018-Jun-18 20:00N 37°48' W 122°32'816.7
2018-Jun-18 19:30N 37°48' W 122°21'2 4.4
2018-Jun-18 19:00N 37°48' W 122°24'0 0.1
2018-Jun-18 18:28N 37°48' W 122°24'0 0.0
2018-Jun-18 18:00N 37°48' W 122°24'0 0.0
2018-Jun-18 17:30N 37°48' W 122°24'0 0.0
2018-Jun-18 17:00N 37°48' W 122°24'0 0.0
2018-Jun-18 16:30N 37°48' W 122°24'0 0.0
2018-Jun-18 15:59N 37°48' W 122°24'613.3
2018-Jun-18 15:30N 37°43' W 122°19'612.8
2018-Jun-18 15:01N 37°48' W 122°24'1 1.6
2018-Jun-18 14:30N 37°48' W 122°23'2 3.7
2018-Jun-18 14:00N 37°49' W 122°25'0 0.6
2018-Jun-18 13:22N 37°49' W 122°25'411.9
2018-Jun-18 13:00N 37°48' W 122°20'3 6.4
2018-Jun-18 12:31N 37°48' W 122°24'0 0.0
2018-Jun-18 12:00N 37°48' W 122°24'0 0.0
2018-Jun-18 11:30N 37°48' W 122°24'1 1.6
2018-Jun-18 11:00N 37°48' W 122°23'1 1.4
2018-Jun-18 10:30N 37°48' W 122°24'3 5.7
2018-Jun-18 10:01N 37°49' W 122°20'1223.2
2018-Jun-18 09:30N 37°47' W 122°35'2 3.7
2018-Jun-18 09:00N 37°47' W 122°33'713.7
2018-Jun-18 08:30N 37°48' W 122°24'0 0.0
2018-Jun-18 08:00N 37°48' W 122°24'1 1.2
2018-Jun-18 07:30N 37°48' W 122°23'2 4.3
2018-Jun-18 07:00N 37°49' W 122°25'2 3.2
2018-Jun-18 06:30N 37°48' W 122°24'0 0.0
2018-Jun-18 06:00N 37°48' W 122°24'0 0.0
2018-Jun-18 05:30N 37°48' W 122°24'0 0.0
2018-Jun-18 05:00N 37°48' W 122°24'0 0.0
2018-Jun-18 04:29N 37°48' W 122°24'0 0.4
2018-Jun-18 04:00N 37°48' W 122°24'3 6.5
2018-Jun-18 03:30N 37°45' W 122°22'3 6.6
2018-Jun-18 03:01N 37°48' W 122°24'4 7.1
2018-Jun-18 02:30N 37°48' W 122°19'0 0.9
2018-Jun-18 02:00N 37°48' W 122°20'510.2
2018-Jun-18 01:30N 37°49' W 122°26'4 8.2
2018-Jun-18 01:00N 37°48' W 122°31'610.5
2018-Jun-18 00:27N 37°46' W 122°38'3 6.2
2018-Jun-17 23:56N 37°47' W 122°34'818.2
2018-Jun-17 23:30N 37°49' W 122°25'510.5
2018-Jun-17 23:00N 37°45' W 122°21'4 7.6
2018-Jun-17 22:30N 37°48' W 122°24'0 0.0
2018-Jun-17 22:00N 37°48' W 122°24'0 0.0
2018-Jun-17 21:29N 37°48' W 122°24'2 3.3
2018-Jun-17 21:01N 37°47' W 122°22'1 2.6
2018-Jun-17 20:30N 37°48' W 122°22'2 3.4
2018-Jun-17 20:01N 37°48' W 122°24'0 0.0
2018-Jun-17 19:30N 37°48' W 122°24'0 0.0
2018-Jun-17 19:00N 37°48' W 122°24'0 0.0
2018-Jun-17 18:30N 37°48' W 122°24'1 2.0
2018-Jun-17 18:00N 37°48' W 122°23'1 2.0
2018-Jun-17 17:30N 37°48' W 122°24'4 7.5
2018-Jun-17 17:00N 37°45' W 122°20'0 0.8
2018-Jun-17 16:30N 37°45' W 122°21'4 8.0
2018-Jun-17 16:00N 37°48' W 122°24'3 5.5
2018-Jun-17 15:30N 37°49' W 122°20'612.9
2018-Jun-17 15:00N 37°49' W 122°28'4 7.3
2018-Jun-17 14:28N 37°48' W 122°24'0 0.0
2018-Jun-17 14:00N 37°48' W 122°24'0 0.0
2018-Jun-17 13:30N 37°48' W 122°24'0 0.0
2018-Jun-17 12:59N 37°48' W 122°24'3 6.2
2018-Jun-17 12:30N 37°46' W 122°21'2 4.3
2018-Jun-17 12:00N 37°48' W 122°21'1 2.3
2018-Jun-17 11:30N 37°49' W 122°20'2 3.8
2018-Jun-17 11:00N 37°48' W 122°22'3 5.7
2018-Jun-17 10:31N 37°46' W 122°21'3 6.8
2018-Jun-17 10:00N 37°48' W 122°24'0 0.0
2018-Jun-17 09:28N 37°48' W 122°24'0 0.0
2018-Jun-17 09:00N 37°48' W 122°24'0 0.0
2018-Jun-17 08:27N 37°48' W 122°24'2 4.2
2018-Jun-17 08:00N 37°50' W 122°24'510.3
2018-Jun-17 07:30N 37°45' W 122°21'3 6.7
2018-Jun-17 07:00N 37°48' W 122°24'3 6.3
2018-Jun-17 06:30N 37°45' W 122°22'3 6.7
2018-Jun-17 06:01N 37°49' W 122°20'3 5.8
2018-Jun-17 05:30N 37°48' W 122°24'0 0.0
2018-Jun-17 05:00N 37°48' W 122°24'0 0.0
2018-Jun-17 04:30N 37°48' W 122°24'0 0.0
2018-Jun-17 04:00N 37°48' W 122°24'0 0.0
2018-Jun-17 03:30N 37°48' W 122°24'1 1.2
2018-Jun-17 03:01N 37°48' W 122°23'3 5.3
2018-Jun-17 02:31N 37°49' W 122°26'1020.3
2018-Jun-17 02:00N 37°46' W 122°39'1 1.5
2018-Jun-17 01:24N 37°45' W 122°39'2 3.5
2018-Jun-17 00:56N 37°46' W 122°37'2 3.7
2018-Jun-17 00:20N 37°47' W 122°35'721.7
2018-Jun-17 00:01N 37°49' W 122°26'611.2
2018-Jun-16 23:30N 37°46' W 122°20'4 7.0
2018-Jun-16 23:00N 37°48' W 122°24'3 5.6
2018-Jun-16 22:30N 37°47' W 122°21'3 5.4
2018-Jun-16 21:59N 37°48' W 122°24'0 0.0
2018-Jun-16 21:30N 37°48' W 122°24'0 0.0
2018-Jun-16 21:00N 37°48' W 122°24'0 0.1
2018-Jun-16 20:30N 37°48' W 122°24'3 6.5
2018-Jun-16 20:00N 37°46' W 122°21'3 6.5
2018-Jun-16 19:31N 37°48' W 122°24'0 0.0
2018-Jun-16 18:57N 37°48' W 122°24'0 0.0
2018-Jun-16 18:31N 37°48' W 122°24'0 0.0
2018-Jun-16 18:00N 37°48' W 122°24'510.1
2018-Jun-16 17:30N 37°44' W 122°20'510.5
2018-Jun-16 17:01N 37°48' W 122°24'0 0.0
2018-Jun-16 16:30N 37°48' W 122°24'0 0.0
2018-Jun-16 16:00N 37°48' W 122°24'0 0.0
2018-Jun-16 15:30N 37°48' W 122°24'3 6.3
2018-Jun-16 15:01N 37°49' W 122°20'3 6.1
2018-Jun-16 14:29N 37°48' W 122°24'1 2.5
2018-Jun-16 14:00N 37°49' W 122°25'1 1.8
2018-Jun-16 13:30N 37°49' W 122°26'2 4.5
2018-Jun-16 13:00N 37°51' W 122°24'3 5.2
2018-Jun-16 12:30N 37°48' W 122°24'1 2.2
2018-Jun-16 12:00N 37°48' W 122°22'1 2.2
2018-Jun-16 11:30N 37°48' W 122°24'0 0.0
2018-Jun-16 11:00N 37°48' W 122°24'0 0.0
2018-Jun-16 10:30N 37°48' W 122°24'3 6.3
2018-Jun-16 10:00N 37°49' W 122°28'4 7.7
2018-Jun-16 09:30N 37°48' W 122°23'1 1.4
2018-Jun-16 09:00N 37°48' W 122°24'0 0.0
2018-Jun-16 08:30N 37°48' W 122°24'0 0.0
2018-Jun-16 08:01N 37°48' W 122°24'0 0.0
2018-Jun-16 07:31N 37°48' W 122°24'0 0.0
2018-Jun-16 07:00N 37°48' W 122°24'0 0.0
2018-Jun-16 06:30N 37°48' W 122°24'611.4
2018-Jun-16 06:00N 37°44' W 122°19'918.2
2018-Jun-16 05:30N 37°50' W 122°27'3 6.9
2018-Jun-16 05:00N 37°48' W 122°24'1 2.7
2018-Jun-16 04:30N 37°47' W 122°22'2 4.8
2018-Jun-16 04:00N 37°46' W 122°20'611.2
2018-Jun-16 03:30N 37°49' W 122°26'2 3.8
2018-Jun-16 03:00N 37°48' W 122°24'0 0.0
2018-Jun-16 02:29N 37°48' W 122°24'4 7.9
2018-Jun-16 02:01N 37°48' W 122°19'3 6.5
2018-Jun-16 01:30N 37°48' W 122°23'0 1.0
2018-Jun-16 01:01N 37°48' W 122°24'5 9.3
2018-Jun-16 00:30N 37°45' W 122°20'5 9.3
2018-Jun-16 00:00N 37°48' W 122°24'0 0.0
2018-Jun-15 23:30N 37°48' W 122°24'0 0.0
2018-Jun-15 23:00N 37°48' W 122°24'1 2.2
2018-Jun-15 22:30N 37°48' W 122°23'1 2.2
2018-Jun-15 22:01N 37°48' W 122°24'3 6.9
2018-Jun-15 21:31N 37°49' W 122°28'3 6.9
2018-Jun-15 21:00N 37°48' W 122°24'918.0
2018-Jun-15 20:30N 37°47' W 122°35'2 3.8
2018-Jun-15 20:01N 37°48' W 122°33'816.5
2018-Jun-15 19:31N 37°47' W 122°22'2 3.6
2018-Jun-15 19:01N 37°48' W 122°20'3 5.5
2018-Jun-15 18:30N 37°48' W 122°24'0 0.5
2018-Jun-15 18:01N 37°48' W 122°23'0 0.5
2018-Jun-15 17:30N 37°48' W 122°24'0 0.0
2018-Jun-15 17:00N 37°48' W 122°24'0 0.0
2018-Jun-15 16:31N 37°48' W 122°24'0 0.0
2018-Jun-15 16:01N 37°48' W 122°24'0 0.0
2018-Jun-15 15:30N 37°48' W 122°24'1 2.7
2018-Jun-15 15:00N 37°49' W 122°25'2 3.1
2018-Jun-15 14:30N 37°49' W 122°27'4 8.3
2018-Jun-15 14:00N 37°47' W 122°22'1 2.0
2018-Jun-15 13:30N 37°48' W 122°23'1 1.2
2018-Jun-15 13:01N 37°48' W 122°24'0 0.0
2018-Jun-15 12:29N 37°48' W 122°24'0 0.0
2018-Jun-15 11:59N 37°48' W 122°24'1 1.8
2018-Jun-15 11:30N 37°48' W 122°23'1 1.7
2018-Jun-15 11:00N 37°48' W 122°24'0 0.0
2018-Jun-15 10:28N 37°48' W 122°24'0 0.0
2018-Jun-15 09:54N 37°48' W 122°24'0 0.0
2018-Jun-15 09:30N 37°48' W 122°24'0 0.0
2018-Jun-15 09:00N 37°48' W 122°24'0 0.0
2018-Jun-15 08:30N 37°48' W 122°24'0 0.0
2018-Jun-15 08:00N 37°48' W 122°24'1 1.2
2018-Jun-15 07:30N 37°48' W 122°23'3 5.1
2018-Jun-15 07:01N 37°46' W 122°21'3 6.2
2018-Jun-15 06:30N 37°48' W 122°24'0 0.0
2018-Jun-15 05:57N 37°48' W 122°24'0 0.2
2018-Jun-15 05:30N 37°48' W 122°24'0 0.1
2018-Jun-15 05:00N 37°48' W 122°24'0 0.0
2018-Jun-15 04:30N 37°48' W 122°24'510.4
2018-Jun-15 04:00N 37°44' W 122°20'5 9.3
2018-Jun-15 03:30N 37°48' W 122°22'1 2.1
2018-Jun-15 03:00N 37°49' W 122°20'1019.3
2018-Jun-15 02:31N 37°48' W 122°32'2 2.1
2018-Jun-15 01:46N 37°47' W 122°34'517.4
2018-Jun-15 01:30N 37°49' W 122°29'4 8.4
2018-Jun-15 01:00N 37°48' W 122°24'0 0.0
2018-Jun-15 00:30N 37°48' W 122°24'0 0.0
2018-Jun-15 00:00N 37°48' W 122°24'0 0.0
2018-Jun-14 23:30N 37°48' W 122°24'0 0.0
2018-Jun-14 23:00N 37°48' W 122°24'0 0.0
2018-Jun-14 22:30N 37°48' W 122°24'1 1.3
2018-Jun-14 22:00N 37°48' W 122°23'1 2.6
2018-Jun-14 21:31N 37°47' W 122°22'2 3.2
2018-Jun-14 21:00N 37°48' W 122°24'0 0.0
2018-Jun-14 20:30N 37°48' W 122°24'0 0.0
2018-Jun-14 19:58N 37°48' W 122°24'0 0.0
2018-Jun-14 19:30N 37°48' W 122°24'0 0.0
2018-Jun-14 19:00N 37°48' W 122°24'0 0.0
2018-Jun-14 18:30N 37°48' W 122°24'0 0.0
2018-Jun-14 18:00N 37°48' W 122°24'0 0.0
2018-Jun-14 17:30N 37°48' W 122°24'1 2.1
2018-Jun-14 17:01N 37°49' W 122°25'4 8.7
2018-Jun-14 16:30N 37°45' W 122°21'3 6.6
2018-Jun-14 16:00N 37°48' W 122°24'0 0.0
2018-Jun-14 15:30N 37°48' W 122°24'0 0.0
2018-Jun-14 15:00N 37°48' W 122°24'4 7.1
2018-Jun-14 14:30N 37°48' W 122°19'2 4.6
2018-Jun-14 14:01N 37°48' W 122°22'2 3.6
2018-Jun-14 13:29N 37°46' W 122°22'2 4.9
2018-Jun-14 13:00N 37°48' W 122°24'0 0.0
2018-Jun-14 12:30N 37°48' W 122°24'0 0.0
2018-Jun-14 12:00N 37°48' W 122°24'3 5.5
2018-Jun-14 11:30N 37°46' W 122°21'3 5.6
2018-Jun-14 11:00N 37°48' W 122°24'612.5
2018-Jun-14 10:30N 37°43' W 122°19'613.0
2018-Jun-14 10:00N 37°48' W 122°24'0 0.1
2018-Jun-14 09:30N 37°48' W 122°24'0 0.0
2018-Jun-14 08:59N 37°48' W 122°24'0 0.0
2018-Jun-14 08:30N 37°48' W 122°24'0 0.0
2018-Jun-14 08:00N 37°48' W 122°24'0 0.0
2018-Jun-14 07:30N 37°48' W 122°24'1 2.7
2018-Jun-14 07:00N 37°49' W 122°25'1 2.7
2018-Jun-14 06:30N 37°48' W 122°24'0 0.0
2018-Jun-14 06:00N 37°48' W 122°24'0 0.0
2018-Jun-14 05:29N 37°48' W 122°24'0 0.0
2018-Jun-14 05:00N 37°48' W 122°24'0 0.0
2018-Jun-14 04:30N 37°48' W 122°24'0 0.0
2018-Jun-14 03:58N 37°48' W 122°24'0 0.0
2018-Jun-14 03:30N 37°48' W 122°24'0 0.0
2018-Jun-14 03:00N 37°48' W 122°24'0 0.0
2018-Jun-14 02:30N 37°48' W 122°24'0 0.0
2018-Jun-14 02:00N 37°48' W 122°24'0 0.0
2018-Jun-14 01:30N 37°48' W 122°24'0 0.0
2018-Jun-14 01:00N 37°48' W 122°24'3 5.6
2018-Jun-14 00:30N 37°46' W 122°21'3 5.6
2018-Jun-14 00:00N 37°48' W 122°24'4 8.6
2018-Jun-13 23:31N 37°48' W 122°18'4 8.3
2018-Jun-13 23:00N 37°48' W 122°24'0 0.0
2018-Jun-13 22:30N 37°48' W 122°24'0 0.0
2018-Jun-13 22:00N 37°48' W 122°24'3 5.5
2018-Jun-13 21:30N 37°49' W 122°20'510.8
2018-Jun-13 21:00N 37°53' W 122°24'612.3
2018-Jun-13 20:30N 37°48' W 122°20'3 6.1
2018-Jun-13 19:59N 37°48' W 122°24'3 6.3
2018-Jun-13 19:30N 37°46' W 122°21'3 6.1
2018-Jun-13 19:00N 37°48' W 122°24'0 0.0
2018-Jun-13 18:30N 37°48' W 122°24'0 0.0
2018-Jun-13 18:00N 37°48' W 122°24'4 7.7
2018-Jun-13 17:30N 37°45' W 122°20'0 0.9
2018-Jun-13 17:00N 37°45' W 122°20'1 2.8
2018-Jun-13 16:30N 37°46' W 122°21'1 1.7
2018-Jun-13 16:00N 37°47' W 122°21'3 7.0
2018-Jun-13 15:30N 37°44' W 122°20'510.7
2018-Jun-13 15:00N 37°48' W 122°24'0 0.0
2018-Jun-13 14:30N 37°48' W 122°24'1 1.3
2018-Jun-13 13:33N 37°49' W 122°25'0 3.1
2018-Jun-13 13:30N 37°49' W 122°25'5 9.4
2018-Jun-13 13:01N 37°48' W 122°19'0 0.5
2018-Jun-13 12:30N 37°48' W 122°20'1 1.5
2018-Jun-13 12:00N 37°49' W 122°20'1 2.0
2018-Jun-13 11:30N 37°48' W 122°21'2 4.0
2018-Jun-13 11:01N 37°48' W 122°24'0 0.0
2018-Jun-13 10:30N 37°48' W 122°24'3 5.4
2018-Jun-13 09:59N 37°46' W 122°21'3 5.6
2018-Jun-13 09:29N 37°48' W 122°24'0 0.0
2018-Jun-13 09:00N 37°48' W 122°24'0 0.0
2018-Jun-13 08:30N 37°48' W 122°24'0 0.0
2018-Jun-13 08:00N 37°48' W 122°24'0 0.0
2018-Jun-13 07:30N 37°48' W 122°24'0 0.0
2018-Jun-13 06:59N 37°48' W 122°24'0 0.0
2018-Jun-13 06:29N 37°48' W 122°24'3 6.3
2018-Jun-13 06:00N 37°51' W 122°23'3 6.7
2018-Jun-13 05:30N 37°52' W 122°27'1120.6
2018-Jun-13 05:00N 37°46' W 122°38'611.5
2018-Jun-13 04:30N 37°49' W 122°32'611.8
2018-Jun-13 04:01N 37°49' W 122°24'4 7.3
2018-Jun-13 03:30N 37°47' W 122°21'3 6.5
2018-Jun-13 03:00N 37°44' W 122°21'816.0
2018-Jun-13 02:31N 37°49' W 122°28'815.3
2018-Jun-13 02:00N 37°46' W 122°37'5 9.8
2018-Jun-13 01:31N 37°48' W 122°32'612.6
2018-Jun-13 01:00N 37°48' W 122°24'0 0.0
2018-Jun-13 00:29N 37°48' W 122°24'0 0.0
2018-Jun-13 00:00N 37°48' W 122°24'4 8.4
2018-Jun-12 23:31N 37°48' W 122°19'1 1.1
2018-Jun-12 23:00N 37°48' W 122°19'3 6.9
2018-Jun-12 22:30N 37°48' W 122°24'0 0.3
2018-Jun-12 21:59N 37°48' W 122°24'0 0.0
2018-Jun-12 21:30N 37°48' W 122°24'510.4
2018-Jun-12 21:00N 37°44' W 122°20'510.4
2018-Jun-12 20:30N 37°48' W 122°24'1 2.6
2018-Jun-12 20:00N 37°49' W 122°25'1 1.2
2018-Jun-12 19:30N 37°49' W 122°25'3 6.1
2018-Jun-12 19:00N 37°49' W 122°29'5 7.3
2018-Jun-12 18:22N 37°47' W 122°34'719.4
2018-Jun-12 18:01N 37°49' W 122°26'2 3.9
2018-Jun-12 17:30N 37°48' W 122°24'0 0.0
2018-Jun-12 17:00N 37°48' W 122°24'0 0.0
2018-Jun-12 16:30N 37°48' W 122°24'4 7.5
2018-Jun-12 16:00N 37°45' W 122°21'1 1.8
2018-Jun-12 15:31N 37°46' W 122°21'3 5.8
2018-Jun-12 15:00N 37°48' W 122°24'0 0.0
2018-Jun-12 14:30N 37°48' W 122°24'4 8.2
2018-Jun-12 14:01N 37°45' W 122°20'4 7.9
2018-Jun-12 13:30N 37°48' W 122°24'2 4.7
2018-Jun-12 13:00N 37°49' W 122°26'2 4.6
2018-Jun-12 12:30N 37°48' W 122°24'0 0.0
2018-Jun-12 12:00N 37°48' W 122°24'0 0.0
2018-Jun-12 11:30N 37°48' W 122°24'0 0.0
2018-Jun-12 10:58N 37°48' W 122°24'0 0.0
2018-Jun-12 10:30N 37°48' W 122°24'0 0.0
2018-Jun-12 10:00N 37°48' W 122°24'0 0.0
2018-Jun-12 09:28N 37°48' W 122°24'0 0.0
2018-Jun-12 09:00N 37°48' W 122°24'0 0.0
2018-Jun-12 08:30N 37°48' W 122°24'0 0.0
2018-Jun-12 08:00N 37°48' W 122°24'0 0.0
2018-Jun-12 07:30N 37°48' W 122°24'0 0.0
2018-Jun-12 07:00N 37°48' W 122°24'2 4.8
2018-Jun-12 06:30N 37°46' W 122°22'2 4.8
2018-Jun-12 06:00N 37°48' W 122°24'0 0.0
2018-Jun-12 05:30N 37°48' W 122°24'0 0.0
2018-Jun-12 05:00N 37°48' W 122°24'0 0.0
2018-Jun-12 04:30N 37°48' W 122°24'0 0.0
2018-Jun-12 04:00N 37°48' W 122°24'3 6.8
2018-Jun-12 03:30N 37°48' W 122°19'817.0
2018-Jun-12 03:00N 37°48' W 122°30'710.7
2018-Jun-12 02:23N 37°46' W 122°38'410.5
2018-Jun-12 02:00N 37°47' W 122°33'815.6
2018-Jun-12 01:30N 37°49' W 122°24'1 1.0
2018-Jun-12 01:00N 37°48' W 122°23'0 0.8
2018-Jun-12 00:30N 37°48' W 122°24'0 0.1
2018-Jun-12 00:00N 37°48' W 122°24'4 8.4
2018-Jun-11 23:30N 37°45' W 122°20'2 4.0
2018-Jun-11 23:00N 37°45' W 122°23'0 0.0
2018-Jun-11 22:30N 37°45' W 122°23'3 6.4
2018-Jun-11 21:59N 37°48' W 122°24'0 0.0
2018-Jun-11 21:31N 37°48' W 122°24'0 0.0
2018-Jun-11 21:00N 37°48' W 122°24'0 0.0
2018-Jun-11 20:30N 37°48' W 122°24'0 0.0
2018-Jun-11 20:01N 37°48' W 122°24'713.2
2018-Jun-11 19:30N 37°48' W 122°32'712.8
2018-Jun-11 18:59N 37°48' W 122°24'2 4.4
2018-Jun-11 18:30N 37°47' W 122°22'2 4.7
2018-Jun-11 18:00N 37°49' W 122°20'4 8.0
2018-Jun-11 17:30N 37°49' W 122°25'0 0.0
2018-Jun-11 16:39N 37°49' W 122°25'1 5.5
2018-Jun-11 16:31N 37°49' W 122°24'4 8.1
2018-Jun-11 16:00N 37°46' W 122°21'1 1.3
2018-Jun-11 15:30N 37°47' W 122°21'3 5.6
2018-Jun-11 15:00N 37°48' W 122°24'3 6.4
2018-Jun-11 14:30N 37°49' W 122°20'4 8.7
2018-Jun-11 14:00N 37°45' W 122°23'4 8.9
2018-Jun-11 13:30N 37°48' W 122°18'5 8.9
2018-Jun-11 13:00N 37°48' W 122°24'0 0.0
2018-Jun-11 12:30N 37°48' W 122°24'2 3.2
2018-Jun-11 12:01N 37°49' W 122°25'1 2.7
2018-Jun-11 11:31N 37°49' W 122°27'5 9.8
2018-Jun-11 11:00N 37°48' W 122°21'2 4.4
2018-Jun-11 10:30N 37°48' W 122°24'0 0.0
2018-Jun-11 10:00N 37°48' W 122°24'0 0.0
2018-Jun-11 09:30N 37°48' W 122°24'0 0.0
2018-Jun-11 09:00N 37°48' W 122°24'0 0.0
2018-Jun-11 08:30N 37°48' W 122°24'0 0.0
2018-Jun-11 08:00N 37°48' W 122°24'0 0.0
2018-Jun-11 07:30N 37°48' W 122°24'0 0.0
2018-Jun-11 07:00N 37°48' W 122°24'2 4.8
2018-Jun-11 06:30N 37°46' W 122°22'4 7.7
2018-Jun-11 06:00N 37°49' W 122°25'2 3.0
2018-Jun-11 05:30N 37°48' W 122°24'0 0.0
2018-Jun-11 05:00N 37°48' W 122°24'0 0.0
2018-Jun-11 04:30N 37°48' W 122°24'0 0.0
2018-Jun-11 04:00N 37°48' W 122°24'0 0.0
2018-Jun-11 03:30N 37°48' W 122°24'0 0.0
2018-Jun-11 03:00N 37°48' W 122°24'0 0.0
2018-Jun-11 02:30N 37°48' W 122°24'  

Dump ship's entire track history